sensor_id;sensor_type;location;lat;lon;timestamp;P1;durP1;ratioP1;P2;durP2;ratioP2
14292;SDS011;62290;59.420;17.842;2023-11-21T00:00:03;1.35;;;1.10;;
14292;SDS011;62290;59.420;17.842;2023-11-21T00:02:38;1.35;;;1.10;;
14292;SDS011;62290;59.420;17.842;2023-11-21T00:05:09;1.33;;;1.23;;
14292;SDS011;62290;59.420;17.842;2023-11-21T00:07:37;1.15;;;0.93;;
14292;SDS011;62290;59.420;17.842;2023-11-21T00:10:06;2.15;;;1.00;;
14292;SDS011;62290;59.420;17.842;2023-11-21T00:12:37;1.27;;;0.95;;
14292;SDS011;62290;59.420;17.842;2023-11-21T00:15:08;4.22;;;1.35;;
14292;SDS011;62290;59.420;17.842;2023-11-21T00:17:38;1.15;;;0.75;;
14292;SDS011;62290;59.420;17.842;2023-11-21T00:20:06;0.70;;;0.70;;
14292;SDS011;62290;59.420;17.842;2023-11-21T00:22:40;1.27;;;1.00;;
14292;SDS011;62290;59.420;17.842;2023-11-21T00:25:08;0.88;;;0.88;;
14292;SDS011;62290;59.420;17.842;2023-11-21T00:27:37;1.35;;;0.98;;
14292;SDS011;62290;59.420;17.842;2023-11-21T00:30:05;0.95;;;0.80;;
14292;SDS011;62290;59.420;17.842;2023-11-21T00:32:35;1.08;;;0.80;;
14292;SDS011;62290;59.420;17.842;2023-11-21T00:35:04;0.68;;;0.65;;
14292;SDS011;62290;59.420;17.842;2023-11-21T00:37:34;1.00;;;0.90;;
14292;SDS011;62290;59.420;17.842;2023-11-21T00:40:02;1.02;;;0.70;;
14292;SDS011;62290;59.420;17.842;2023-11-21T00:42:33;0.60;;;0.60;;
14292;SDS011;62290;59.420;17.842;2023-11-21T00:45:02;1.20;;;0.63;;
14292;SDS011;62290;59.420;17.842;2023-11-21T00:47:30;1.50;;;0.70;;
14292;SDS011;62290;59.420;17.842;2023-11-21T00:49:58;0.65;;;0.65;;
14292;SDS011;62290;59.420;17.842;2023-11-21T00:52:26;0.93;;;0.75;;
14292;SDS011;62290;59.420;17.842;2023-11-21T00:54:56;0.60;;;0.60;;
14292;SDS011;62290;59.420;17.842;2023-11-21T00:57:25;0.57;;;0.47;;
14292;SDS011;62290;59.420;17.842;2023-11-21T00:59:53;0.60;;;0.60;;
14292;SDS011;62290;59.420;17.842;2023-11-21T01:02:21;1.75;;;0.80;;
14292;SDS011;62290;59.420;17.842;2023-11-21T01:04:49;0.60;;;0.60;;
14292;SDS011;62290;59.420;17.842;2023-11-21T01:07:17;6.65;;;0.80;;
14292;SDS011;62290;59.420;17.842;2023-11-21T01:09:47;0.70;;;0.70;;
14292;SDS011;62290;59.420;17.842;2023-11-21T01:12:16;0.55;;;0.55;;
14292;SDS011;62290;59.420;17.842;2023-11-21T01:14:45;0.60;;;0.60;;
14292;SDS011;62290;59.420;17.842;2023-11-21T01:17:13;0.63;;;0.55;;
14292;SDS011;62290;59.420;17.842;2023-11-21T01:19:41;0.82;;;0.70;;
14292;SDS011;62290;59.420;17.842;2023-11-21T01:22:09;0.57;;;0.47;;
14292;SDS011;62290;59.420;17.842;2023-11-21T01:24:38;0.60;;;0.60;;
14292;SDS011;62290;59.420;17.842;2023-11-21T01:27:06;0.68;;;0.60;;
14292;SDS011;62290;59.420;17.842;2023-11-21T01:29:36;0.57;;;0.57;;
14292;SDS011;62290;59.420;17.842;2023-11-21T01:32:05;0.68;;;0.60;;
14292;SDS011;62290;59.420;17.842;2023-11-21T01:34:34;1.00;;;0.70;;
14292;SDS011;62290;59.420;17.842;2023-11-21T01:37:02;1.77;;;0.60;;
14292;SDS011;62290;59.420;17.842;2023-11-21T01:39:31;0.50;;;0.50;;
14292;SDS011;62290;59.420;17.842;2023-11-21T01:41:59;0.80;;;0.60;;
14292;SDS011;62290;59.420;17.842;2023-11-21T01:44:27;4.88;;;0.60;;
14292;SDS011;62290;59.420;17.842;2023-11-21T01:46:57;0.65;;;0.63;;
14292;SDS011;62290;59.420;17.842;2023-11-21T01:49:26;0.60;;;0.60;;
14292;SDS011;62290;59.420;17.842;2023-11-21T01:51:54;1.33;;;0.63;;
14292;SDS011;62290;59.420;17.842;2023-11-21T01:54:23;0.65;;;0.60;;
14292;SDS011;62290;59.420;17.842;2023-11-21T01:56:51;1.30;;;1.00;;
14292;SDS011;62290;59.420;17.842;2023-11-21T01:59:20;0.82;;;0.82;;
14292;SDS011;62290;59.420;17.842;2023-11-21T02:01:49;0.75;;;0.75;;
14292;SDS011;62290;59.420;17.842;2023-11-21T02:04:19;0.60;;;0.60;;
14292;SDS011;62290;59.420;17.842;2023-11-21T02:06:47;0.50;;;0.50;;
14292;SDS011;62290;59.420;17.842;2023-11-21T02:09:22;0.75;;;0.40;;
14292;SDS011;62290;59.420;17.842;2023-11-21T02:11:52;0.70;;;0.57;;
14292;SDS011;62290;59.420;17.842;2023-11-21T02:14:24;0.55;;;0.55;;
14292;SDS011;62290;59.420;17.842;2023-11-21T02:16:54;0.70;;;0.70;;
14292;SDS011;62290;59.420;17.842;2023-11-21T02:19:25;0.68;;;0.68;;
14292;SDS011;62290;59.420;17.842;2023-11-21T02:21:53;0.50;;;0.50;;
14292;SDS011;62290;59.420;17.842;2023-11-21T02:24:22;1.15;;;0.63;;
14292;SDS011;62290;59.420;17.842;2023-11-21T02:26:51;0.93;;;0.50;;
14292;SDS011;62290;59.420;17.842;2023-11-21T02:29:20;0.55;;;0.55;;
14292;SDS011;62290;59.420;17.842;2023-11-21T02:31:52;0.63;;;0.60;;
14292;SDS011;62290;59.420;17.842;2023-11-21T02:34:22;0.50;;;0.50;;
14292;SDS011;62290;59.420;17.842;2023-11-21T02:36:52;0.60;;;0.60;;
14292;SDS011;62290;59.420;17.842;2023-11-21T02:39:20;0.98;;;0.68;;
14292;SDS011;62290;59.420;17.842;2023-11-21T02:41:52;0.60;;;0.57;;
14292;SDS011;62290;59.420;17.842;2023-11-21T02:44:20;0.47;;;0.47;;
14292;SDS011;62290;59.420;17.842;2023-11-21T02:46:48;0.50;;;0.50;;
14292;SDS011;62290;59.420;17.842;2023-11-21T02:49:16;0.60;;;0.60;;
14292;SDS011;62290;59.420;17.842;2023-11-21T02:51:44;0.55;;;0.50;;
14292;SDS011;62290;59.420;17.842;2023-11-21T02:54:12;0.77;;;0.50;;
14292;SDS011;62290;59.420;17.842;2023-11-21T02:56:43;0.50;;;0.50;;
14292;SDS011;62290;59.420;17.842;2023-11-21T02:59:12;1.25;;;0.50;;
14292;SDS011;62290;59.420;17.842;2023-11-21T03:01:40;0.63;;;0.60;;
14292;SDS011;62290;59.420;17.842;2023-11-21T03:04:08;0.63;;;0.60;;
14292;SDS011;62290;59.420;17.842;2023-11-21T03:06:36;0.47;;;0.47;;
14292;SDS011;62290;59.420;17.842;2023-11-21T03:09:04;0.40;;;0.40;;
14292;SDS011;62290;59.420;17.842;2023-11-21T03:11:33;0.82;;;0.60;;
14292;SDS011;62290;59.420;17.842;2023-11-21T03:14:01;0.98;;;0.70;;
14292;SDS011;62290;59.420;17.842;2023-11-21T03:16:31;0.68;;;0.40;;
14292;SDS011;62290;59.420;17.842;2023-11-21T03:18:59;0.63;;;0.52;;
14292;SDS011;62290;59.420;17.842;2023-11-21T03:21:27;0.75;;;0.70;;
14292;SDS011;62290;59.420;17.842;2023-11-21T03:23:55;0.50;;;0.40;;
14292;SDS011;62290;59.420;17.842;2023-11-21T03:26:23;0.50;;;0.50;;
14292;SDS011;62290;59.420;17.842;2023-11-21T03:28:51;0.50;;;0.50;;
14292;SDS011;62290;59.420;17.842;2023-11-21T03:31:20;0.55;;;0.55;;
14292;SDS011;62290;59.420;17.842;2023-11-21T03:33:50;0.60;;;0.57;;
14292;SDS011;62290;59.420;17.842;2023-11-21T03:36:20;0.50;;;0.50;;
14292;SDS011;62290;59.420;17.842;2023-11-21T03:38:48;0.98;;;0.40;;
14292;SDS011;62290;59.420;17.842;2023-11-21T03:41:16;0.55;;;0.47;;
14292;SDS011;62290;59.420;17.842;2023-11-21T03:43:44;0.60;;;0.50;;
14292;SDS011;62290;59.420;17.842;2023-11-21T03:46:13;0.63;;;0.40;;
14292;SDS011;62290;59.420;17.842;2023-11-21T03:48:41;0.52;;;0.50;;
14292;SDS011;62290;59.420;17.842;2023-11-21T03:51:11;0.30;;;0.30;;
14292;SDS011;62290;59.420;17.842;2023-11-21T03:53:39;2.10;;;0.45;;
14292;SDS011;62290;59.420;17.842;2023-11-21T03:56:09;0.40;;;0.38;;
14292;SDS011;62290;59.420;17.842;2023-11-21T03:58:38;0.50;;;0.50;;
14292;SDS011;62290;59.420;17.842;2023-11-21T04:01:06;0.90;;;0.50;;
14292;SDS011;62290;59.420;17.842;2023-11-21T04:03:34;0.52;;;0.50;;
14292;SDS011;62290;59.420;17.842;2023-11-21T04:06:02;0.70;;;0.40;;
14292;SDS011;62290;59.420;17.842;2023-11-21T04:08:33;0.30;;;0.30;;
14292;SDS011;62290;59.420;17.842;2023-11-21T04:11:01;0.30;;;0.30;;
14292;SDS011;62290;59.420;17.842;2023-11-21T04:13:30;0.25;;;0.25;;
14292;SDS011;62290;59.420;17.842;2023-11-21T04:15:58;0.30;;;0.30;;
14292;SDS011;62290;59.420;17.842;2023-11-21T04:18:29;0.45;;;0.45;;
14292;SDS011;62290;59.420;17.842;2023-11-21T04:20:57;0.70;;;0.50;;
14292;SDS011;62290;59.420;17.842;2023-11-21T04:23:25;0.40;;;0.40;;
14292;SDS011;62290;59.420;17.842;2023-11-21T04:25:55;2.88;;;0.60;;
14292;SDS011;62290;59.420;17.842;2023-11-21T04:28:23;0.50;;;0.40;;
14292;SDS011;62290;59.420;17.842;2023-11-21T04:30:51;0.52;;;0.50;;
14292;SDS011;62290;59.420;17.842;2023-11-21T04:33:19;0.40;;;0.30;;
14292;SDS011;62290;59.420;17.842;2023-11-21T04:35:48;0.60;;;0.40;;
14292;SDS011;62290;59.420;17.842;2023-11-21T04:38:16;0.40;;;0.40;;
14292;SDS011;62290;59.420;17.842;2023-11-21T04:40:44;1.35;;;0.65;;
14292;SDS011;62290;59.420;17.842;2023-11-21T04:43:13;0.45;;;0.45;;
14292;SDS011;62290;59.420;17.842;2023-11-21T04:45:42;0.43;;;0.43;;
14292;SDS011;62290;59.420;17.842;2023-11-21T04:48:09;0.73;;;0.50;;
14292;SDS011;62290;59.420;17.842;2023-11-21T04:50:37;0.65;;;0.50;;
14292;SDS011;62290;59.420;17.842;2023-11-21T04:53:06;1.10;;;0.30;;
14292;SDS011;62290;59.420;17.842;2023-11-21T04:55:34;0.40;;;0.40;;
14292;SDS011;62290;59.420;17.842;2023-11-21T04:58:02;0.50;;;0.35;;
14292;SDS011;62290;59.420;17.842;2023-11-21T05:00:32;0.47;;;0.45;;
14292;SDS011;62290;59.420;17.842;2023-11-21T05:03:00;1.83;;;1.08;;
14292;SDS011;62290;59.420;17.842;2023-11-21T05:05:28;1.13;;;0.60;;
14292;SDS011;62290;59.420;17.842;2023-11-21T05:07:57;0.22;;;0.22;;
14292;SDS011;62290;59.420;17.842;2023-11-21T05:10:25;0.50;;;0.40;;
14292;SDS011;62290;59.420;17.842;2023-11-21T05:12:53;0.63;;;0.50;;
14292;SDS011;62290;59.420;17.842;2023-11-21T05:15:21;0.47;;;0.45;;
14292;SDS011;62290;59.420;17.842;2023-11-21T05:17:51;0.50;;;0.40;;
14292;SDS011;62290;59.420;17.842;2023-11-21T05:20:20;0.60;;;0.50;;
14292;SDS011;62290;59.420;17.842;2023-11-21T05:22:48;1.40;;;0.50;;
14292;SDS011;62290;59.420;17.842;2023-11-21T05:25:16;0.52;;;0.40;;
14292;SDS011;62290;59.420;17.842;2023-11-21T05:27:45;2.20;;;0.60;;
14292;SDS011;62290;59.420;17.842;2023-11-21T05:30:13;1.52;;;0.70;;
14292;SDS011;62290;59.420;17.842;2023-11-21T05:32:41;0.70;;;0.40;;
14292;SDS011;62290;59.420;17.842;2023-11-21T05:35:11;0.47;;;0.47;;
14292;SDS011;62290;59.420;17.842;2023-11-21T05:37:43;0.80;;;0.70;;
14292;SDS011;62290;59.420;17.842;2023-11-21T05:40:12;0.70;;;0.60;;
14292;SDS011;62290;59.420;17.842;2023-11-21T05:42:40;1.15;;;0.52;;
14292;SDS011;62290;59.420;17.842;2023-11-21T05:45:08;0.43;;;0.40;;
14292;SDS011;62290;59.420;17.842;2023-11-21T05:47:38;0.98;;;0.73;;
14292;SDS011;62290;59.420;17.842;2023-11-21T05:50:08;0.93;;;0.52;;
14292;SDS011;62290;59.420;17.842;2023-11-21T05:52:40;0.77;;;0.60;;
14292;SDS011;62290;59.420;17.842;2023-11-21T05:55:08;0.70;;;0.60;;
14292;SDS011;62290;59.420;17.842;2023-11-21T05:57:37;0.75;;;0.75;;
14292;SDS011;62290;59.420;17.842;2023-11-21T06:00:06;0.60;;;0.57;;
14292;SDS011;62290;59.420;17.842;2023-11-21T06:02:39;1.95;;;0.70;;
14292;SDS011;62290;59.420;17.842;2023-11-21T06:05:07;0.85;;;0.80;;
14292;SDS011;62290;59.420;17.842;2023-11-21T06:07:36;1.25;;;0.55;;
14292;SDS011;62290;59.420;17.842;2023-11-21T06:10:08;1.48;;;0.77;;
14292;SDS011;62290;59.420;17.842;2023-11-21T06:12:39;1.10;;;0.60;;
14292;SDS011;62290;59.420;17.842;2023-11-21T06:15:09;0.80;;;0.63;;
14292;SDS011;62290;59.420;17.842;2023-11-21T06:17:40;1.65;;;0.70;;
14292;SDS011;62290;59.420;17.842;2023-11-21T06:20:09;2.00;;;0.50;;
14292;SDS011;62290;59.420;17.842;2023-11-21T06:22:41;2.75;;;0.57;;
14292;SDS011;62290;59.420;17.842;2023-11-21T06:25:12;1.00;;;0.80;;
14292;SDS011;62290;59.420;17.842;2023-11-21T06:27:41;2.58;;;0.70;;
14292;SDS011;62290;59.420;17.842;2023-11-21T06:30:11;0.63;;;0.50;;
14292;SDS011;62290;59.420;17.842;2023-11-21T06:32:41;2.05;;;0.95;;
14292;SDS011;62290;59.420;17.842;2023-11-21T06:35:12;0.90;;;0.80;;
14292;SDS011;62290;59.420;17.842;2023-11-21T06:37:43;1.90;;;0.70;;
14292;SDS011;62290;59.420;17.842;2023-11-21T06:40:17;0.77;;;0.73;;
14292;SDS011;62290;59.420;17.842;2023-11-21T06:42:47;2.65;;;0.60;;
14292;SDS011;62290;59.420;17.842;2023-11-21T06:45:15;1.63;;;0.70;;
14292;SDS011;62290;59.420;17.842;2023-11-21T06:47:44;0.80;;;0.68;;
14292;SDS011;62290;59.420;17.842;2023-11-21T06:50:13;2.45;;;0.80;;
14292;SDS011;62290;59.420;17.842;2023-11-21T06:52:41;1.70;;;0.75;;
14292;SDS011;62290;59.420;17.842;2023-11-21T06:55:10;1.10;;;0.90;;
14292;SDS011;62290;59.420;17.842;2023-11-21T06:57:39;0.60;;;0.60;;
14292;SDS011;62290;59.420;17.842;2023-11-21T07:00:08;0.73;;;0.60;;
14292;SDS011;62290;59.420;17.842;2023-11-21T07:02:36;0.80;;;0.73;;
14292;SDS011;62290;59.420;17.842;2023-11-21T07:05:06;0.73;;;0.70;;
14292;SDS011;62290;59.420;17.842;2023-11-21T07:07:34;1.85;;;0.85;;
14292;SDS011;62290;59.420;17.842;2023-11-21T07:10:04;1.42;;;1.02;;
14292;SDS011;62290;59.420;17.842;2023-11-21T07:12:33;2.80;;;1.15;;
14292;SDS011;62290;59.420;17.842;2023-11-21T07:15:03;2.58;;;1.25;;
14292;SDS011;62290;59.420;17.842;2023-11-21T07:17:35;7.55;;;1.38;;
14292;SDS011;62290;59.420;17.842;2023-11-21T07:20:07;3.60;;;1.10;;
14292;SDS011;62290;59.420;17.842;2023-11-21T07:22:35;4.88;;;1.65;;
14292;SDS011;62290;59.420;17.842;2023-11-21T07:25:04;5.68;;;1.00;;
14292;SDS011;62290;59.420;17.842;2023-11-21T07:27:33;2.72;;;1.13;;
14292;SDS011;62290;59.420;17.842;2023-11-21T07:30:04;3.88;;;1.30;;
14292;SDS011;62290;59.420;17.842;2023-11-21T07:32:34;3.55;;;1.23;;
14292;SDS011;62290;59.420;17.842;2023-11-21T07:35:02;3.55;;;1.00;;
14292;SDS011;62290;59.420;17.842;2023-11-21T07:37:31;3.28;;;1.00;;
14292;SDS011;62290;59.420;17.842;2023-11-21T07:39:59;4.80;;;0.90;;
14292;SDS011;62290;59.420;17.842;2023-11-21T07:42:27;4.40;;;1.10;;
14292;SDS011;62290;59.420;17.842;2023-11-21T07:44:55;2.95;;;1.02;;
14292;SDS011;62290;59.420;17.842;2023-11-21T07:47:25;2.05;;;0.98;;
14292;SDS011;62290;59.420;17.842;2023-11-21T07:49:54;1.90;;;0.80;;
14292;SDS011;62290;59.420;17.842;2023-11-21T07:52:23;1.10;;;0.88;;
14292;SDS011;62290;59.420;17.842;2023-11-21T07:54:51;1.83;;;0.80;;
14292;SDS011;62290;59.420;17.842;2023-11-21T07:57:19;2.95;;;1.10;;
14292;SDS011;62290;59.420;17.842;2023-11-21T07:59:47;1.63;;;0.77;;
14292;SDS011;62290;59.420;17.842;2023-11-21T08:02:15;1.30;;;0.80;;
14292;SDS011;62290;59.420;17.842;2023-11-21T08:04:45;1.15;;;0.80;;
14292;SDS011;62290;59.420;17.842;2023-11-21T08:07:16;1.98;;;1.08;;
14292;SDS011;62290;59.420;17.842;2023-11-21T08:09:44;2.55;;;0.90;;
14292;SDS011;62290;59.420;17.842;2023-11-21T08:12:14;3.30;;;1.23;;
14292;SDS011;62290;59.420;17.842;2023-11-21T08:14:42;1.27;;;0.73;;
14292;SDS011;62290;59.420;17.842;2023-11-21T08:17:11;1.85;;;0.77;;
14292;SDS011;62290;59.420;17.842;2023-11-21T08:19:42;1.38;;;0.95;;
14292;SDS011;62290;59.420;17.842;2023-11-21T08:22:12;1.13;;;1.00;;
14292;SDS011;62290;59.420;17.842;2023-11-21T08:24:42;1.65;;;1.02;;
14292;SDS011;62290;59.420;17.842;2023-11-21T08:27:10;2.00;;;1.10;;
14292;SDS011;62290;59.420;17.842;2023-11-21T08:29:38;1.40;;;1.00;;
14292;SDS011;62290;59.420;17.842;2023-11-21T08:32:06;2.55;;;1.10;;
14292;SDS011;62290;59.420;17.842;2023-11-21T08:34:34;1.85;;;1.00;;
14292;SDS011;62290;59.420;17.842;2023-11-21T08:37:02;2.05;;;1.20;;
14292;SDS011;62290;59.420;17.842;2023-11-21T08:39:32;2.75;;;1.10;;
14292;SDS011;62290;59.420;17.842;2023-11-21T08:42:00;1.85;;;0.75;;
14292;SDS011;62290;59.420;17.842;2023-11-21T08:44:29;1.98;;;1.33;;
14292;SDS011;62290;59.420;17.842;2023-11-21T08:46:57;1.42;;;0.98;;
14292;SDS011;62290;59.420;17.842;2023-11-21T08:49:25;1.08;;;0.90;;
14292;SDS011;62290;59.420;17.842;2023-11-21T08:51:54;1.27;;;1.10;;
14292;SDS011;62290;59.420;17.842;2023-11-21T08:54:24;2.05;;;1.17;;
14292;SDS011;62290;59.420;17.842;2023-11-21T08:56:53;1.77;;;1.08;;
14292;SDS011;62290;59.420;17.842;2023-11-21T08:59:24;2.75;;;1.10;;
14292;SDS011;62290;59.420;17.842;2023-11-21T09:01:52;1.98;;;1.15;;
14292;SDS011;62290;59.420;17.842;2023-11-21T09:04:20;1.33;;;1.10;;
14292;SDS011;62290;59.420;17.842;2023-11-21T09:06:48;1.10;;;0.80;;
14292;SDS011;62290;59.420;17.842;2023-11-21T09:09:16;2.33;;;1.10;;
14292;SDS011;62290;59.420;17.842;2023-11-21T09:11:46;1.40;;;1.10;;
14292;SDS011;62290;59.420;17.842;2023-11-21T09:14:17;1.42;;;1.08;;
14292;SDS011;62290;59.420;17.842;2023-11-21T09:16:45;1.13;;;0.90;;
14292;SDS011;62290;59.420;17.842;2023-11-21T09:19:13;1.58;;;0.90;;
14292;SDS011;62290;59.420;17.842;2023-11-21T09:21:41;2.80;;;1.08;;
14292;SDS011;62290;59.420;17.842;2023-11-21T09:24:09;3.47;;;1.05;;
14292;SDS011;62290;59.420;17.842;2023-11-21T09:26:37;0.90;;;0.80;;
14292;SDS011;62290;59.420;17.842;2023-11-21T09:29:05;1.35;;;0.90;;
14292;SDS011;62290;59.420;17.842;2023-11-21T09:31:36;1.42;;;0.85;;
14292;SDS011;62290;59.420;17.842;2023-11-21T09:34:05;0.80;;;0.75;;
14292;SDS011;62290;59.420;17.842;2023-11-21T09:36:33;0.98;;;0.88;;
14292;SDS011;62290;59.420;17.842;2023-11-21T09:39:01;1.20;;;0.85;;
14292;SDS011;62290;59.420;17.842;2023-11-21T09:41:33;1.42;;;0.60;;
14292;SDS011;62290;59.420;17.842;2023-11-21T09:44:08;1.27;;;0.82;;
14292;SDS011;62290;59.420;17.842;2023-11-21T09:46:41;1.10;;;0.80;;
14292;SDS011;62290;59.420;17.842;2023-11-21T09:49:10;1.05;;;0.80;;
14292;SDS011;62290;59.420;17.842;2023-11-21T09:51:42;0.70;;;0.70;;
14292;SDS011;62290;59.420;17.842;2023-11-21T09:54:11;1.02;;;0.80;;
14292;SDS011;62290;59.420;17.842;2023-11-21T09:56:39;2.33;;;0.82;;
14292;SDS011;62290;59.420;17.842;2023-11-21T09:59:10;0.68;;;0.60;;
14292;SDS011;62290;59.420;17.842;2023-11-21T10:01:42;1.27;;;0.82;;
14292;SDS011;62290;59.420;17.842;2023-11-21T10:04:10;1.10;;;0.80;;
14292;SDS011;62290;59.420;17.842;2023-11-21T10:06:39;0.73;;;0.73;;
14292;SDS011;62290;59.420;17.842;2023-11-21T10:09:08;1.58;;;0.80;;
14292;SDS011;62290;59.420;17.842;2023-11-21T10:11:39;2.30;;;0.90;;
14292;SDS011;62290;59.420;17.842;2023-11-21T10:14:08;1.30;;;0.98;;
14292;SDS011;62290;59.420;17.842;2023-11-21T10:16:40;0.80;;;0.60;;
14292;SDS011;62290;59.420;17.842;2023-11-21T10:19:13;1.98;;;0.90;;
14292;SDS011;62290;59.420;17.842;2023-11-21T10:21:42;1.15;;;1.05;;
14292;SDS011;62290;59.420;17.842;2023-11-21T10:24:10;0.80;;;0.80;;
14292;SDS011;62290;59.420;17.842;2023-11-21T10:26:39;0.88;;;0.80;;
14292;SDS011;62290;59.420;17.842;2023-11-21T10:29:18;1.00;;;0.90;;
14292;SDS011;62290;59.420;17.842;2023-11-21T10:31:50;0.98;;;0.73;;
14292;SDS011;62290;59.420;17.842;2023-11-21T10:34:21;1.35;;;1.00;;
14292;SDS011;62290;59.420;17.842;2023-11-21T10:36:49;0.82;;;0.80;;
14292;SDS011;62290;59.420;17.842;2023-11-21T10:39:17;1.23;;;0.95;;
14292;SDS011;62290;59.420;17.842;2023-11-21T10:41:47;1.67;;;0.95;;
14292;SDS011;62290;59.420;17.842;2023-11-21T10:44:16;2.72;;;1.00;;
14292;SDS011;62290;59.420;17.842;2023-11-21T10:46:49;1.08;;;0.93;;
14292;SDS011;62290;59.420;17.842;2023-11-21T10:49:19;1.70;;;1.10;;
14292;SDS011;62290;59.420;17.842;2023-11-21T10:51:47;1.00;;;0.88;;
14292;SDS011;62290;59.420;17.842;2023-11-21T10:54:18;2.15;;;0.93;;
14292;SDS011;62290;59.420;17.842;2023-11-21T10:56:48;1.45;;;1.20;;
14292;SDS011;62290;59.420;17.842;2023-11-21T10:59:18;1.15;;;1.00;;
14292;SDS011;62290;59.420;17.842;2023-11-21T11:01:52;1.05;;;0.95;;
14292;SDS011;62290;59.420;17.842;2023-11-21T11:04:22;1.05;;;0.93;;
14292;SDS011;62290;59.420;17.842;2023-11-21T11:06:53;2.30;;;1.00;;
14292;SDS011;62290;59.420;17.842;2023-11-21T11:09:23;1.13;;;0.82;;
14292;SDS011;62290;59.420;17.842;2023-11-21T11:11:51;2.80;;;0.95;;
14292;SDS011;62290;59.420;17.842;2023-11-21T11:14:20;0.90;;;0.90;;
14292;SDS011;62290;59.420;17.842;2023-11-21T11:16:54;1.70;;;1.00;;
14292;SDS011;62290;59.420;17.842;2023-11-21T11:19:23;0.77;;;0.73;;
14292;SDS011;62290;59.420;17.842;2023-11-21T11:21:53;1.50;;;0.88;;
14292;SDS011;62290;59.420;17.842;2023-11-21T11:24:45;0.93;;;0.82;;
14292;SDS011;62290;59.420;17.842;2023-11-21T11:27:28;1.42;;;0.90;;
14292;SDS011;62290;59.420;17.842;2023-11-21T11:30:07;1.67;;;0.85;;
14292;SDS011;62290;59.420;17.842;2023-11-21T11:32:50;3.45;;;0.93;;
14292;SDS011;62290;59.420;17.842;2023-11-21T11:35:25;1.17;;;1.05;;
14292;SDS011;62290;59.420;17.842;2023-11-21T11:38:01;2.50;;;1.20;;
14292;SDS011;62290;59.420;17.842;2023-11-21T11:40:38;0.90;;;0.80;;
14292;SDS011;62290;59.420;17.842;2023-11-21T11:43:07;1.25;;;1.00;;
14292;SDS011;62290;59.420;17.842;2023-11-21T11:45:36;3.60;;;0.95;;
14292;SDS011;62290;59.420;17.842;2023-11-21T11:48:10;1.70;;;1.20;;
14292;SDS011;62290;59.420;17.842;2023-11-21T11:50:42;1.70;;;1.05;;
14292;SDS011;62290;59.420;17.842;2023-11-21T11:53:33;1.70;;;1.02;;
14292;SDS011;62290;59.420;17.842;2023-11-21T11:56:20;1.50;;;1.02;;
14292;SDS011;62290;59.420;17.842;2023-11-21T11:58:52;1.85;;;1.33;;
14292;SDS011;62290;59.420;17.842;2023-11-21T12:01:21;1.20;;;1.05;;
14292;SDS011;62290;59.420;17.842;2023-11-21T12:07:00;1.40;;;1.30;;
14292;SDS011;62290;59.420;17.842;2023-11-21T12:09:30;1.65;;;1.08;;
14292;SDS011;62290;59.420;17.842;2023-11-21T12:12:00;1.52;;;1.05;;
14292;SDS011;62290;59.420;17.842;2023-11-21T12:14:30;2.20;;;1.48;;
14292;SDS011;62290;59.420;17.842;2023-11-21T12:16:58;2.72;;;1.10;;
14292;SDS011;62290;59.420;17.842;2023-11-21T12:19:28;1.67;;;1.38;;
14292;SDS011;62290;59.420;17.842;2023-11-21T12:21:56;1.33;;;1.10;;
14292;SDS011;62290;59.420;17.842;2023-11-21T12:24:24;1.17;;;1.08;;
14292;SDS011;62290;59.420;17.842;2023-11-21T12:26:55;1.10;;;1.00;;
14292;SDS011;62290;59.420;17.842;2023-11-21T12:29:23;1.17;;;1.02;;
14292;SDS011;62290;59.420;17.842;2023-11-21T12:31:51;1.75;;;1.20;;
14292;SDS011;62290;59.420;17.842;2023-11-21T12:34:19;1.20;;;1.10;;
14292;SDS011;62290;59.420;17.842;2023-11-21T12:36:48;1.92;;;1.20;;
14292;SDS011;62290;59.420;17.842;2023-11-21T12:39:17;1.60;;;1.20;;
14292;SDS011;62290;59.420;17.842;2023-11-21T12:41:49;1.48;;;1.10;;
14292;SDS011;62290;59.420;17.842;2023-11-21T12:44:17;1.25;;;1.13;;
14292;SDS011;62290;59.420;17.842;2023-11-21T12:46:45;1.08;;;0.98;;
14292;SDS011;62290;59.420;17.842;2023-11-21T12:49:13;1.08;;;0.95;;
14292;SDS011;62290;59.420;17.842;2023-11-21T12:51:45;1.13;;;1.02;;
14292;SDS011;62290;59.420;17.842;2023-11-21T12:54:15;2.35;;;1.17;;
14292;SDS011;62290;59.420;17.842;2023-11-21T12:56:45;1.13;;;0.90;;
14292;SDS011;62290;59.420;17.842;2023-11-21T12:59:15;1.17;;;0.95;;
14292;SDS011;62290;59.420;17.842;2023-11-21T13:01:45;1.10;;;1.00;;
14292;SDS011;62290;59.420;17.842;2023-11-21T13:04:13;1.38;;;1.13;;
14292;SDS011;62290;59.420;17.842;2023-11-21T13:06:41;1.38;;;0.85;;
14292;SDS011;62290;59.420;17.842;2023-11-21T13:09:09;1.45;;;0.98;;
14292;SDS011;62290;59.420;17.842;2023-11-21T13:11:40;0.90;;;0.80;;
14292;SDS011;62290;59.420;17.842;2023-11-21T13:14:08;0.98;;;0.70;;
14292;SDS011;62290;59.420;17.842;2023-11-21T13:16:38;0.60;;;0.60;;
14292;SDS011;62290;59.420;17.842;2023-11-21T13:19:12;1.95;;;0.90;;
14292;SDS011;62290;59.420;17.842;2023-11-21T13:21:40;1.17;;;0.80;;
14292;SDS011;62290;59.420;17.842;2023-11-21T13:24:08;1.50;;;1.00;;
14292;SDS011;62290;59.420;17.842;2023-11-21T13:26:36;1.08;;;0.65;;
14292;SDS011;62290;59.420;17.842;2023-11-21T13:29:06;1.33;;;0.65;;
14292;SDS011;62290;59.420;17.842;2023-11-21T13:31:35;0.80;;;0.80;;
14292;SDS011;62290;59.420;17.842;2023-11-21T13:34:03;0.73;;;0.70;;
14292;SDS011;62290;59.420;17.842;2023-11-21T13:36:35;0.60;;;0.60;;
14292;SDS011;62290;59.420;17.842;2023-11-21T13:39:03;1.58;;;0.80;;
14292;SDS011;62290;59.420;17.842;2023-11-21T13:41:35;1.00;;;0.90;;
14292;SDS011;62290;59.420;17.842;2023-11-21T13:44:06;0.77;;;0.60;;
14292;SDS011;62290;59.420;17.842;2023-11-21T13:46:43;0.88;;;0.70;;
14292;SDS011;62290;59.420;17.842;2023-11-21T13:49:12;0.52;;;0.52;;
14292;SDS011;62290;59.420;17.842;2023-11-21T13:51:41;0.90;;;0.65;;
14292;SDS011;62290;59.420;17.842;2023-11-21T13:54:12;1.45;;;1.15;;
14292;SDS011;62290;59.420;17.842;2023-11-21T13:56:41;1.15;;;0.95;;
14292;SDS011;62290;59.420;17.842;2023-11-21T13:59:13;1.30;;;1.00;;
14292;SDS011;62290;59.420;17.842;2023-11-21T14:01:49;1.45;;;0.85;;
14292;SDS011;62290;59.420;17.842;2023-11-21T14:04:23;2.40;;;1.00;;
14292;SDS011;62290;59.420;17.842;2023-11-21T14:07:19;1.30;;;0.90;;
14292;SDS011;62290;59.420;17.842;2023-11-21T14:09:59;1.00;;;0.73;;
14292;SDS011;62290;59.420;17.842;2023-11-21T14:12:27;1.20;;;0.80;;
14292;SDS011;62290;59.420;17.842;2023-11-21T14:15:05;1.63;;;0.90;;
14292;SDS011;62290;59.420;17.842;2023-11-21T14:17:36;1.58;;;0.95;;
14292;SDS011;62290;59.420;17.842;2023-11-21T14:20:06;1.10;;;0.93;;
14292;SDS011;62290;59.420;17.842;2023-11-21T14:22:42;0.98;;;0.80;;
14292;SDS011;62290;59.420;17.842;2023-11-21T14:25:11;1.30;;;0.80;;
14292;SDS011;62290;59.420;17.842;2023-11-21T14:27:40;1.05;;;0.60;;
14292;SDS011;62290;59.420;17.842;2023-11-21T14:30:10;0.85;;;0.82;;
14292;SDS011;62290;59.420;17.842;2023-11-21T14:32:40;0.80;;;0.80;;
14292;SDS011;62290;59.420;17.842;2023-11-21T14:35:08;1.05;;;0.80;;
14292;SDS011;62290;59.420;17.842;2023-11-21T14:37:37;1.25;;;0.90;;
14292;SDS011;62290;59.420;17.842;2023-11-21T14:40:06;0.98;;;0.85;;
14292;SDS011;62290;59.420;17.842;2023-11-21T14:42:35;0.93;;;0.70;;
14292;SDS011;62290;59.420;17.842;2023-11-21T14:45:05;2.50;;;0.80;;
14292;SDS011;62290;59.420;17.842;2023-11-21T14:47:36;0.73;;;0.68;;
14292;SDS011;62290;59.420;17.842;2023-11-21T14:50:09;0.98;;;0.70;;